Time;durP1;ratioP1;P1;durP2;ratioP2;P2;SDS_P1;SDS_P2;PMS_P1;PMS_P2;Temp;Humidity;BMP_temperature;BMP_pressure;BME280_temperature;BME280_humidity;BME280_pressure;Samples;Min_cycle;Max_cycle;Signal;HPM_P1;HPM_P2
2023/01/16 00:01:20;;;;;;;5.60;2.20;;;;;;;3.86;100.00;99631.91;5045649;28;20502;-92
2023/01/16 00:03:45;;;;;;;4.75;2.10;;;;;;;3.83;100.00;99630.22;5043029;28;20028;-93
2023/01/16 00:06:11;;;;;;;3.83;2.20;;;;;;;3.79;100.00;99622.63;5023828;28;20025;-93
2023/01/16 00:08:36;;;;;;;4.65;2.10;;;;;;;3.77;100.00;99619.22;5044243;28;20429;-93
2023/01/16 00:11:01;;;;;;;2.65;1.92;;;;;;;3.74;100.00;99615.00;5042500;28;20119;-92
2023/01/16 00:13:27;;;;;;;3.20;2.22;;;;;;;3.71;100.00;99606.50;5025099;28;20025;-92
2023/01/16 00:15:52;;;;;;;3.53;1.98;;;;;;;3.71;100.00;99604.78;5044847;28;20028;-92
2023/01/16 00:18:18;;;;;;;3.10;2.08;;;;;;;3.69;100.00;99610.78;5042308;28;20089;-93
2023/01/16 00:20:44;;;;;;;2.58;1.75;;;;;;;3.62;100.00;99607.50;5044073;28;20600;-93
2023/01/16 00:23:10;;;;;;;2.72;1.80;;;;;;;3.57;100.00;99599.88;5041881;28;20078;-93
2023/01/16 00:25:39;;;;;;;6.50;1.90;;;;;;;3.57;100.00;99599.03;5042971;28;20548;-93
2023/01/16 00:28:04;;;;;;;4.75;1.85;;;;;;;3.53;100.00;99599.97;5024229;28;20126;-92
2023/01/16 00:30:30;;;;;;;6.03;1.80;;;;;;;3.48;100.00;99594.06;5044810;28;20033;-93
2023/01/16 00:32:55;;;;;;;5.38;1.92;;;;;;;3.46;100.00;99595.81;5023499;28;20032;-93
2023/01/16 00:35:20;;;;;;;4.10;1.90;;;;;;;3.43;100.00;99591.56;5042576;28;20078;-93
2023/01/16 00:37:46;;;;;;;4.30;1.88;;;;;;;3.41;100.00;99588.16;5044377;28;20033;-93
2023/01/16 00:40:11;;;;;;;4.50;1.80;;;;;;;3.35;100.00;99584.84;5045436;28;20072;-93
2023/01/16 00:42:37;;;;;;;6.72;1.90;;;;;;;3.34;100.00;99589.16;5025533;28;20539;-92
2023/01/16 00:45:02;;;;;;;6.97;2.03;;;;;;;3.25;100.00;99589.28;5043678;28;20025;-92
2023/01/16 00:47:28;;;;;;;3.80;1.95;;;;;;;3.17;100.00;99580.84;5027047;28;20087;-93
2023/01/16 00:49:53;;;;;;;5.32;2.22;;;;;;;3.12;100.00;99578.38;5024549;28;20036;-93
2023/01/16 00:52:18;;;;;;;6.30;2.40;;;;;;;3.14;100.00;99586.00;5039687;28;20041;-92
2023/01/16 00:54:43;;;;;;;4.75;2.22;;;;;;;3.06;100.00;99570.78;5041506;28;20033;-92
2023/01/16 00:57:09;;;;;;;5.43;2.17;;;;;;;3.00;100.00;99573.38;5041292;28;20382;-93
2023/01/16 00:59:34;;;;;;;4.10;2.40;;;;;;;2.87;100.00;99556.50;5040611;28;20406;-93
2023/01/16 01:01:59;;;;;;;4.30;2.20;;;;;;;2.79;100.00;99555.78;5036067;28;20085;-92
2023/01/16 01:04:25;;;;;;;7.50;2.63;;;;;;;2.76;100.00;99553.25;5044837;28;20510;-93
2023/01/16 01:06:50;;;;;;;6.90;2.60;;;;;;;2.67;100.00;99554.22;5040777;28;20446;-92
2023/01/16 01:09:16;;;;;;;7.75;2.38;;;;;;;2.63;100.00;99549.16;5042018;28;20181;-93
2023/01/16 01:11:41;;;;;;;5.57;2.03;;;;;;;2.51;100.00;99532.28;5043653;28;20024;-93
2023/01/16 01:14:06;;;;;;;6.78;2.22;;;;;;;2.51;100.00;99539.09;5042990;28;21022;-93
2023/01/16 01:16:31;;;;;;;4.28;2.13;;;;;;;2.45;100.00;99540.03;5042092;28;20453;-93
2023/01/16 01:18:57;;;;;;;4.05;2.00;;;;;;;2.42;100.00;99542.59;5043323;28;20481;-92
2023/01/16 01:21:22;;;;;;;8.25;2.28;;;;;;;2.36;100.00;99533.28;5044191;28;20025;-93
2023/01/16 01:23:47;;;;;;;8.38;2.00;;;;;;;2.33;100.00;99524.78;5043100;28;20099;-92
2023/01/16 01:26:16;;;;;;;7.63;2.10;;;;;;;2.28;100.00;99524.00;5044636;28;20480;-92
2023/01/16 01:28:42;;;;;;;6.05;1.85;;;;;;;2.26;100.00;99524.03;5045407;28;20489;-93
2023/01/16 01:31:10;;;;;;;7.45;1.73;;;;;;;2.23;100.00;99503.63;5043414;28;20037;-92
2023/01/16 01:33:35;;;;;;;6.43;1.85;;;;;;;2.20;100.00;99511.31;5041536;28;20032;-93
2023/01/16 01:36:02;;;;;;;3.53;1.70;;;;;;;2.18;100.00;99502.00;5042890;28;20040;-92
2023/01/16 01:38:28;;;;;;;7.45;1.80;;;;;;;2.14;100.00;99493.50;5042731;28;20075;-92
2023/01/16 01:40:53;;;;;;;5.22;1.77;;;;;;;2.07;100.00;99491.03;5041367;28;20037;-92
2023/01/16 01:43:18;;;;;;;7.70;1.80;;;;;;;2.01;100.00;99480.88;5041653;28;20033;-93
2023/01/16 01:45:51;;;;;;;7.65;1.65;;;;;;;1.97;100.00;99480.06;5044284;28;20243;-94
2023/01/16 01:48:26;;;;;;;6.40;1.58;;;;;;;1.93;100.00;99475.84;5044315;28;20494;-94
2023/01/16 01:50:57;;;;;;;9.95;1.55;;;;;;;1.88;100.00;99465.69;5043474;28;20063;-94
2023/01/16 01:53:48;;;;;;;5.68;1.70;;;;;;;1.85;100.00;99459.75;5039739;28;20040;-93
2023/01/16 01:56:22;;;;;;;7.28;1.60;;;;;;;1.80;100.00;99452.13;5041434;28;20398;-93
2023/01/16 01:58:54;;;;;;;5.50;1.50;;;;;;;1.71;100.00;99438.63;5025548;28;20040;-87
2023/01/16 02:01:19;;;;;;;8.45;1.90;;;;;;;1.66;100.00;99435.28;5042089;28;20489;-87
2023/01/16 02:03:57;;;;;;;6.40;1.60;;;;;;;1.63;100.00;99431.06;5041906;28;20027;-87
2023/01/16 02:06:32;;;;;;;4.18;1.52;;;;;;;1.58;100.00;99427.69;5043825;28;20339;-87
2023/01/16 02:08:58;;;;;;;5.85;1.63;;;;;;;1.55;100.00;99426.03;5027123;28;20029;-87
2023/01/16 02:11:36;;;;;;;7.20;1.90;;;;;;;1.51;100.00;99426.06;5044563;28;20037;-87
2023/01/16 02:14:07;;;;;;;6.65;1.90;;;;;;;1.46;100.00;99408.25;5026275;28;20031;-87
2023/01/16 02:19:50;;;;;;;4.88;1.58;;;;;;;1.40;100.00;99415.97;5045989;28;20123;-87
2023/01/16 02:22:38;;;;;;;6.65;1.80;;;;;;;1.38;100.00;99415.13;5045357;28;20032;-87
2023/01/16 02:25:25;;;;;;;5.90;1.83;;;;;;;1.35;100.00;99401.56;5027397;28;20033;-87
2023/01/16 02:28:21;;;;;;;4.75;1.63;;;;;;;1.32;100.00;99399.03;5045672;28;20521;-87
2023/01/16 02:31:06;;;;;;;8.20;2.00;;;;;;;1.27;100.00;99386.31;5044735;28;20378;-87
2023/01/16 02:33:47;;;;;;;8.15;2.13;;;;;;;1.30;100.00;99375.25;5027713;28;20033;-88
2023/01/16 02:36:20;;;;;;;7.43;2.45;;;;;;;1.29;100.00;99359.09;5045282;28;20392;-85
2023/01/16 02:39:44;;;;;;;3.40;1.52;;;;;;;1.36;100.00;99359.84;5046328;28;20470;-91
2023/01/16 02:42:16;;;;;;;6.78;1.67;;;;;;;1.34;100.00;99356.47;4956968;28;20031;-92
2023/01/16 02:45:21;;;;;;;4.05;1.88;;;;;;;1.29;100.00;99336.09;4956216;28;20183;-92
2023/01/16 02:47:58;;;;;;;5.28;1.80;;;;;;;1.27;100.00;99331.88;5037350;28;20044;-93
2023/01/16 02:50:27;;;;;;;5.03;1.70;;;;;;;1.25;100.00;99328.47;5044628;28;20405;-92
2023/01/16 02:53:30;;;;;;;4.93;1.83;;;;;;;1.27;100.00;99314.00;5047302;28;20686;-93
2023/01/16 02:56:03;;;;;;;6.60;1.80;;;;;;;1.25;100.00;99310.63;5013046;28;20091;-92
2023/01/16 02:58:32;;;;;;;6.68;2.10;;;;;;;1.22;100.00;99290.25;5029447;28;20500;-93
2023/01/16 03:00:59;;;;;;;4.72;1.60;;;;;;;1.23;100.00;99286.84;5041683;28;20520;-92
2023/01/16 03:03:41;;;;;;;6.65;1.70;;;;;;;1.19;100.00;99281.75;5047742;28;20461;-93
2023/01/16 03:06:17;;;;;;;8.18;1.75;;;;;;;1.17;100.00;99274.97;5046914;28;20453;-93
2023/01/16 03:09:24;;;;;;;5.85;1.70;;;;;;;1.17;100.00;99267.31;5029133;28;20051;-93
2023/01/16 03:12:15;;;;;;;6.75;1.83;;;;;;;1.13;100.00;99265.69;4983977;28;20492;-93
2023/01/16 03:14:58;;;;;;;4.45;1.60;;;;;;;1.11;100.00;99258.03;4960272;28;20026;-93
2023/01/16 03:17:53;;;;;;;5.32;1.60;;;;;;;1.11;100.00;99247.81;5032024;28;20060;-93
2023/01/16 03:20:45;;;;;;;2.92;1.35;;;;;;;1.10;100.00;99248.69;5047410;28;20401;-94
2023/01/16 03:23:45;;;;;;;6.78;1.45;;;;;;;1.11;100.00;99231.66;5061344;28;20155;-93
2023/01/16 03:26:36;;;;;;;8.60;1.65;;;;;;;1.16;100.00;99219.72;5067612;28;20021;-93
2023/01/16 03:29:35;;;;;;;8.77;1.40;;;;;;;1.17;100.00;99213.72;5066829;28;20100;-94
2023/01/16 03:32:49;;;;;;;5.13;1.30;;;;;;;1.20;100.00;99208.59;5054590;28;20340;-93
2023/01/16 03:35:21;;;;;;;6.07;1.50;;;;;;;1.21;100.00;99212.00;5024837;28;20508;-93
2023/01/16 03:37:51;;;;;;;5.25;1.30;;;;;;;1.24;100.00;99197.47;5068894;28;20033;-94
2023/01/16 03:40:22;;;;;;;5.78;1.35;;;;;;;1.24;100.00;99194.94;5071965;28;20427;-94
2023/01/16 03:42:56;;;;;;;5.45;1.40;;;;;;;1.25;100.00;99181.31;5050155;28;21029;-93
2023/01/16 03:45:28;;;;;;;7.25;1.50;;;;;;;1.29;100.00;99171.94;5055056;28;20083;-94
2023/01/16 03:48:05;;;;;;;5.30;1.40;;;;;;;1.28;100.00;99153.22;5063364;28;20150;-93
2023/01/16 03:50:31;;;;;;;6.85;1.65;;;;;;;1.31;100.00;99153.16;5063978;28;20041;-92
2023/01/16 03:53:02;;;;;;;5.13;1.80;;;;;;;1.33;100.00;99143.78;5065494;28;20083;-93
2023/01/16 03:55:39;;;;;;;5.85;1.73;;;;;;;1.34;100.00;99142.06;5063103;28;20099;-94
2023/01/16 03:58:09;;;;;;;7.80;2.28;;;;;;;1.38;100.00;99133.50;5063042;28;20036;-93
2023/01/16 04:00:58;;;;;;;4.60;1.98;;;;;;;1.41;100.00;99118.16;5065993;28;20123;-94
2023/01/16 04:03:33;;;;;;;4.68;1.98;;;;;;;1.43;100.00;99111.31;5063711;28;20017;-93
2023/01/16 04:06:44;;;;;;;6.38;1.55;;;;;;;1.48;100.00;99105.28;5065465;28;20494;-93
2023/01/16 04:09:36;;;;;;;4.75;1.77;;;;;;;1.50;100.00;99092.50;5018359;28;20182;-93
2023/01/16 04:12:05;;;;;;;7.72;2.00;;;;;;;1.53;100.00;99087.31;5045097;28;20468;-93
2023/01/16 04:14:34;;;;;;;5.45;2.00;;;;;;;1.49;100.00;99075.50;5043472;28;20370;-94
2023/01/16 04:16:59;;;;;;;4.78;2.00;;;;;;;1.52;100.00;99067.75;5025367;28;20029;-93
2023/01/16 04:19:28;;;;;;;7.60;2.67;;;;;;;1.55;100.00;99065.19;5045090;28;20086;-94
2023/01/16 04:21:53;;;;;;;5.30;2.40;;;;;;;1.51;100.00;99043.94;5042406;28;20029;-93
2023/01/16 04:24:19;;;;;;;6.55;2.08;;;;;;;1.53;100.00;99042.22;5044712;28;20039;-94
2023/01/16 04:26:44;;;;;;;7.93;2.20;;;;;;;1.55;100.00;99037.94;5025293;28;20033;-93
2023/01/16 04:29:09;;;;;;;8.02;2.45;;;;;;;1.61;100.00;99036.13;5043786;28;20025;-95
2023/01/16 04:31:35;;;;;;;9.38;2.50;;;;;;;1.67;100.00;99024.13;5042565;28;20029;-93
2023/01/16 04:34:00;;;;;;;7.72;2.40;;;;;;;1.71;100.00;99012.13;5044352;28;20041;-93
2023/01/16 04:36:25;;;;;;;8.20;2.22;;;;;;;1.75;100.00;99001.00;5044877;28;20028;-94
2023/01/16 04:38:51;;;;;;;7.97;2.45;;;;;;;1.76;100.00;98992.47;5043508;28;20260;-94
2023/01/16 04:41:35;;;;;;;6.20;2.47;;;;;;;1.82;100.00;98987.25;5038713;28;20458;-94
2023/01/16 04:44:04;;;;;;;9.25;2.13;;;;;;;1.88;100.00;98974.34;5041317;28;20140;-94
2023/01/16 04:46:30;;;;;;;8.60;2.00;;;;;;;1.91;100.00;98964.91;5043501;28;20199;-94
2023/01/16 04:48:55;;;;;;;6.63;2.03;;;;;;;1.94;100.00;98952.09;5043660;28;20025;-94
2023/01/16 04:51:21;;;;;;;4.55;2.22;;;;;;;1.99;100.00;98945.16;5042338;28;20143;-94
2023/01/16 04:53:46;;;;;;;13.32;2.55;;;;;;;2.06;100.00;98935.66;5044109;28;20492;-92
2023/01/16 04:56:11;;;;;;;6.30;2.17;;;;;;;2.09;100.00;98920.28;5043790;28;20417;-93
2023/01/16 04:58:37;;;;;;;4.97;1.92;;;;;;;2.14;100.00;98918.47;5043431;28;20033;-94
2023/01/16 05:01:02;;;;;;;11.50;2.40;;;;;;;2.21;100.00;98914.06;5023741;28;20039;-93
2023/01/16 05:03:27;;;;;;;5.03;2.28;;;;;;;2.23;100.00;98902.97;5043812;28;20033;-93
2023/01/16 05:05:53;;;;;;;5.72;2.03;;;;;;;2.31;100.00;98898.53;5043557;28;20032;-94
2023/01/16 05:08:18;;;;;;;5.40;1.85;;;;;;;2.37;100.00;98890.72;5042276;28;20176;-94
2023/01/16 05:10:44;;;;;;;7.60;2.03;;;;;;;2.44;100.00;98882.91;5024151;28;20028;-93
2023/01/16 05:13:09;;;;;;;7.05;2.08;;;;;;;2.46;100.00;98871.75;5024416;28;20613;-93
2023/01/16 05:15:35;;;;;;;4.82;1.92;;;;;;;2.51;100.00;98862.28;5043666;28;20056;-93
2023/01/16 05:18:00;;;;;;;8.35;2.03;;;;;;;2.58;100.00;98858.72;5024141;28;20029;-93
2023/01/16 05:20:25;;;;;;;5.95;2.10;;;;;;;2.63;100.00;98849.19;5042867;28;20021;-94
2023/01/16 05:22:51;;;;;;;5.63;1.80;;;;;;;2.66;100.00;98840.63;5043354;28;20025;-93
2023/01/16 05:25:16;;;;;;;8.45;1.70;;;;;;;2.72;100.00;98832.81;5042813;28;20357;-94
2023/01/16 05:27:41;;;;;;;5.45;1.70;;;;;;;2.73;100.00;98819.94;5024840;28;20013;-93
2023/01/16 05:30:08;;;;;;;7.55;1.77;;;;;;;2.80;100.00;98817.28;5043328;28;20029;-93
2023/01/16 05:32:33;;;;;;;6.15;1.88;;;;;;;2.83;100.00;98807.78;5042167;28;20017;-93
2023/01/16 05:35:01;;;;;;;7.38;1.90;;;;;;;2.90;100.00;98793.97;5043174;28;20657;-93
2023/01/16 05:37:27;;;;;;;8.32;1.98;;;;;;;2.92;100.00;98792.22;5043418;28;20528;-93
2023/01/16 05:39:56;;;;;;;6.93;1.80;;;;;;;2.94;100.00;98777.63;5024391;28;20040;-93
2023/01/16 05:42:24;;;;;;;6.47;2.10;;;;;;;2.97;100.00;98771.63;5043166;28;20574;-94
2023/01/16 05:44:50;;;;;;;3.35;1.90;;;;;;;2.98;100.00;98758.78;5044112;28;20394;-93
2023/01/16 05:47:16;;;;;;;7.45;1.60;;;;;;;2.94;100.00;98740.97;5043690;28;20031;-93
2023/01/16 05:49:41;;;;;;;7.88;1.88;;;;;;;2.95;100.00;98740.09;5044150;28;20036;-93
2023/01/16 05:52:06;;;;;;;6.68;1.70;;;;;;;2.96;100.00;98734.09;5039657;28;20040;-93
2023/01/16 05:54:33;;;;;;;5.78;1.58;;;;;;;2.95;100.00;98724.75;5042263;28;20139;-93
2023/01/16 05:56:58;;;;;;;4.70;1.90;;;;;;;2.95;100.00;98715.34;5043725;28;20101;-93
2023/01/16 05:59:23;;;;;;;6.22;1.70;;;;;;;2.91;100.00;98708.66;5043896;28;20032;-94
2023/01/16 06:01:49;;;;;;;6.68;1.80;;;;;;;2.92;100.00;98705.22;5044685;28;20119;-94
2023/01/16 06:04:15;;;;;;;4.82;1.60;;;;;;;2.91;100.00;98692.47;5045800;28;20119;-93
2023/01/16 06:06:40;;;;;;;6.40;1.48;;;;;;;2.89;100.00;98674.59;5045203;28;20669;-93
2023/01/16 06:09:06;;;;;;;4.72;1.38;;;;;;;2.93;100.00;98676.19;5045384;28;20021;-93
2023/01/16 06:11:31;;;;;;;3.28;1.27;;;;;;;2.94;100.00;98667.63;5044423;28;20371;-93
2023/01/16 06:13:56;;;;;;;6.95;1.40;;;;;;;2.95;100.00;98663.34;5044591;28;20032;-94
2023/01/16 06:16:25;;;;;;;5.85;1.50;;;;;;;2.99;100.00;98670.06;5043852;28;20543;-94
2023/01/16 06:18:50;;;;;;;7.15;1.60;;;;;;;3.02;100.00;98665.69;5045018;28;20490;-94
2023/01/16 06:21:15;;;;;;;4.60;1.35;;;;;;;3.03;100.00;98663.97;5043991;28;20027;-92
2023/01/16 06:23:41;;;;;;;4.70;1.33;;;;;;;3.01;100.00;98658.88;5044895;28;20482;-93
2023/01/16 06:26:09;;;;;;;4.55;1.30;;;;;;;3.04;100.00;98658.81;5044769;28;20107;-93
2023/01/16 06:28:35;;;;;;;5.25;1.35;;;;;;;3.01;100.00;98648.66;5043035;28;20028;-94
2023/01/16 06:31:01;;;;;;;6.40;2.42;;;;;;;2.97;100.00;98633.44;5044115;28;20025;-92
2023/01/16 06:33:26;;;;;;;6.43;1.65;;;;;;;2.97;100.00;98644.50;5043384;28;20036;-92
2023/01/16 06:35:52;;;;;;;7.45;1.52;;;;;;;2.99;100.00;98639.34;5045295;28;20393;-93
2023/01/16 06:38:17;;;;;;;3.35;1.30;;;;;;;2.97;100.00;98633.44;5045017;28;20500;-94
2023/01/16 06:40:44;;;;;;;5.28;1.50;;;;;;;2.97;100.00;98633.44;5045143;28;20025;-94
2023/01/16 06:43:10;;;;;;;3.47;1.13;;;;;;;2.94;100.00;98624.13;5044756;28;20060;-93
2023/01/16 06:45:35;;;;;;;3.97;1.33;;;;;;;2.93;100.00;98619.06;5045916;28;20036;-93
2023/01/16 06:48:01;;;;;;;4.07;1.23;;;;;;;2.92;100.00;98602.88;5044585;28;20028;-92
2023/01/16 06:50:26;;;;;;;4.78;1.40;;;;;;;2.91;100.00;98590.97;5044780;28;20052;-94
2023/01/16 06:52:51;;;;;;;4.30;1.20;;;;;;;2.88;100.00;98579.97;5030604;28;20064;-94
2023/01/16 06:55:17;;;;;;;5.60;1.30;;;;;;;2.93;100.00;98578.97;5047996;28;20804;-93
2023/01/16 06:57:42;;;;;;;3.78;1.30;;;;;;;2.91;100.00;98561.97;5048185;28;20044;-93
2023/01/16 07:00:08;;;;;;;6.43;1.30;;;;;;;2.90;100.00;98550.06;5046415;28;20032;-93
2023/01/16 07:02:33;;;;;;;4.85;1.40;;;;;;;2.95;100.00;98535.41;5050023;28;20021;-93
2023/01/16 07:04:59;;;;;;;4.53;1.40;;;;;;;2.92;100.00;98520.16;5030868;28;20036;-93
2023/01/16 07:07:24;;;;;;;6.05;1.30;;;;;;;2.93;100.00;98511.63;5048227;28;20021;-93
2023/01/16 07:09:49;;;;;;;5.88;1.25;;;;;;;2.91;100.00;98498.03;5030406;28;20188;-94
2023/01/16 07:12:14;;;;;;;4.38;1.23;;;;;;;2.92;100.00;98494.59;5047554;28;20478;-94
2023/01/16 07:22:56;;;;;;;4.65;1.27;;;;;;;2.93;100.00;98447.66;5048281;28;20325;-94
2023/01/16 07:25:28;;;;;;;5.78;1.30;;;;;;;2.94;100.00;98442.47;5048097;28;20029;-94
2023/01/16 07:27:53;;;;;;;4.57;1.23;;;;;;;2.91;100.00;98422.09;5047547;28;20028;-93
2023/01/16 07:30:21;;;;;;;6.18;1.30;;;;;;;2.89;100.00;98411.06;5048603;28;20047;-93
2023/01/16 07:32:47;;;;;;;4.65;1.23;;;;;;;2.88;100.00;98408.56;5028689;28;20021;-93
2023/01/16 07:35:13;;;;;;;5.97;1.50;;;;;;;2.99;100.00;98412.47;5047789;28;20470;-95
2023/01/16 07:37:39;;;;;;;9.68;1.52;;;;;;;2.85;100.00;98396.72;5047685;28;20044;-94
2023/01/16 07:40:05;;;;;;;5.93;1.35;;;;;;;2.94;100.00;98400.69;5029530;28;20031;-93
2023/01/16 07:42:31;;;;;;;7.60;1.60;;;;;;;2.90;100.00;98386.34;5048262;28;20025;-96
2023/01/16 07:44:56;;;;;;;4.22;1.33;;;;;;;2.97;100.00;98391.22;5033429;28;20047;-95
2023/01/16 07:47:22;;;;;;;6.30;1.60;;;;;;;3.02;100.00;98389.31;5046182;28;20163;-92
2023/01/16 07:49:47;;;;;;;4.72;1.48;;;;;;;2.99;100.00;98381.75;5046068;28;20043;-91
2023/01/16 07:52:13;;;;;;;7.15;1.65;;;;;;;3.05;100.00;98378.16;5042750;28;20095;-93
2023/01/16 07:54:40;;;;;;;3.45;1.80;;;;;;;3.06;100.00;98367.88;5045683;28;20052;-93
2023/01/16 07:57:05;;;;;;;7.78;2.10;;;;;;;2.92;100.00;98338.53;5064020;28;20026;-94
2023/01/16 07:59:31;;;;;;;4.25;1.70;;;;;;;3.07;100.00;98355.94;5061512;28;20032;-95
2023/01/16 08:01:56;;;;;;;6.30;2.00;;;;;;;2.96;100.00;98333.25;5062617;28;20081;-95
2023/01/16 08:04:22;;;;;;;7.13;1.58;;;;;;;2.97;100.00;98318.72;5052306;28;20033;-96
2023/01/16 08:06:47;;;;;;;7.38;1.95;;;;;;;3.09;100.00;98336.22;5052455;28;20053;-94
2023/01/16 08:09:21;;;;;;;4.60;1.90;;;;;;;2.96;100.00;98305.09;5068612;28;20043;-96
2023/01/16 08:11:47;;;;;;;7.28;1.88;;;;;;;3.03;100.00;98313.41;5076552;28;20042;-96
2023/01/16 08:14:13;;;;;;;6.75;2.13;;;;;;;3.00;100.00;98296.41;5076004;28;20108;-94
2023/01/16 08:19:15;;;;;;;6.05;2.00;;;;;;;3.15;100.00;98308.69;4984869;28;20050;-71
2023/01/16 08:21:41;;;;;;;7.72;1.98;;;;;;;3.16;100.00;98296.72;4987709;28;20038;-73
2023/01/16 08:24:07;;;;;;;4.47;1.90;;;;;;;3.18;100.00;98290.69;4987058;28;20416;-73
2023/01/16 08:26:33;;;;;;;4.57;1.95;;;;;;;3.21;100.00;98274.38;4984816;28;20412;-73
2023/01/16 08:28:59;;;;;;;7.63;2.10;;;;;;;3.20;100.00;98264.22;5001056;28;20490;-73
2023/01/16 08:31:25;;;;;;;5.22;2.25;;;;;;;3.19;100.00;98260.81;4986042;28;20424;-73
2023/01/16 08:33:50;;;;;;;4.90;1.88;;;;;;;3.20;100.00;98252.25;4986335;28;20031;-73
2023/01/16 08:36:16;;;;;;;7.10;1.80;;;;;;;3.23;100.00;98247.00;4986549;28;20412;-73
2023/01/16 08:38:43;;;;;;;6.32;1.88;;;;;;;3.25;100.00;98231.59;4987333;28;20034;-73
2023/01/16 08:52:06;;;;;;;6.43;2.10;;;;;;;3.30;100.00;98201.53;4985170;28;20118;-73
2023/01/16 08:54:32;;;;;;;5.63;2.33;;;;;;;3.32;100.00;98212.56;4976955;28;20054;-73
2023/01/16 08:56:57;;;;;;;7.20;2.05;;;;;;;3.33;100.00;98211.69;4965919;28;20031;-73
2023/01/16 08:59:23;;;;;;;4.90;1.90;;;;;;;3.35;100.00;98209.88;4966755;28;20035;-74
2023/01/16 09:01:48;;;;;;;7.38;1.88;;;;;;;3.36;100.00;98206.44;4966480;28;20473;-74
2023/01/16 09:04:13;;;;;;;5.63;1.73;;;;;;;3.37;100.00;98206.38;4967035;28;20031;-73
2023/01/16 09:06:39;;;;;;;6.78;1.88;;;;;;;3.40;100.00;98197.75;4965752;28;20031;-74
2023/01/16 09:09:06;;;;;;;3.70;1.52;;;;;;;3.43;100.00;98197.63;4966891;28;20137;-74
2023/01/16 09:14:16;;;;;;;7.03;2.00;;;;;;;3.47;100.00;98196.63;4966542;28;20054;-74
2023/01/16 09:16:41;;;;;;;4.30;1.65;;;;;;;3.48;100.00;98190.63;4966342;28;20030;-73
2023/01/16 09:19:07;;;;;;;4.22;1.80;;;;;;;3.50;100.00;98188.81;4983116;28;20133;-73
2023/01/16 09:21:32;;;;;;;4.72;1.50;;;;;;;3.52;100.00;98193.00;4985747;28;20031;-73
2023/01/16 09:23:58;;;;;;;4.07;1.60;;;;;;;3.53;100.00;98201.53;4986369;28;20386;-74
2023/01/16 09:26:23;;;;;;;8.95;1.77;;;;;;;3.52;100.00;98187.03;4986285;28;20026;-74
2023/01/16 09:28:48;;;;;;;3.85;1.65;;;;;;;3.53;100.00;98184.44;4984675;28;20042;-73
2023/01/16 09:31:14;;;;;;;7.30;1.80;;;;;;;3.55;100.00;98184.34;4981294;28;20026;-73
2023/01/16 09:33:40;;;;;;;2.85;1.65;;;;;;;3.55;100.00;98182.63;4984831;28;20221;-74
2023/01/16 09:36:06;;;;;;;5.60;1.67;;;;;;;3.54;100.00;98173.31;4972158;28;20026;-73
2023/01/16 09:38:32;;;;;;;2.70;1.45;;;;;;;3.53;100.00;98178.47;4985120;28;20097;-73
2023/01/16 09:40:58;;;;;;;5.32;1.55;;;;;;;3.49;100.00;98174.34;4986054;28;20605;-73
2023/01/16 09:43:39;;;;;;;2.60;1.30;;;;;;;3.49;100.00;98161.53;4983133;28;20480;-73
2023/01/16 09:46:20;;;;;;;2.10;1.42;;;;;;;3.46;100.00;98162.50;4984428;28;20141;-73
2023/01/16 09:48:56;;;;;;;3.30;1.65;;;;;;;3.46;100.00;98162.50;4984381;28;20058;-73
2023/01/16 09:51:30;;;;;;;3.95;1.52;;;;;;;3.46;100.00;98164.25;4982721;28;20066;-72
2023/01/16 09:59:34;;;;;;;3.25;1.23;;;;;;;3.54;100.00;98154.53;4979874;28;20049;-73
2023/01/16 10:02:08;;;;;;;2.30;1.20;;;;;;;3.52;100.00;98141.78;4985025;28;20045;-73
2023/01/16 10:04:36;;;;;;;2.90;1.13;;;;;;;3.54;100.00;98142.56;4985739;28;20493;-73
2023/01/16 10:07:16;;;;;;;3.83;1.30;;;;;;;3.56;100.00;98143.31;4985441;28;20443;-73
2023/01/16 10:09:59;;;;;;;1.10;1.00;;;;;;;3.58;100.00;98140.72;4984011;28;20118;-72
2023/01/16 10:12:34;;;;;;;1.70;1.02;;;;;;;3.61;100.00;98129.53;4984707;28;20041;-72
2023/01/16 10:15:17;;;;;;;1.92;1.20;;;;;;;3.67;100.00;98124.16;4984427;28;20042;-72
2023/01/16 10:18:23;;;;;;;1.92;1.23;;;;;;;3.71;100.00;98118.00;4974537;28;20053;-72
2023/01/16 10:21:04;;;;;;;3.60;1.10;;;;;;;3.75;100.00;98115.28;4961149;28;20042;-72
2023/01/16 10:23:44;;;;;;;3.30;1.30;;;;;;;3.76;100.00;98104.13;4982993;28;20137;-73
2023/01/16 10:26:19;;;;;;;2.45;1.50;;;;;;;3.79;100.00;98104.00;4983560;28;20061;-73
2023/01/16 10:29:17;;;;;;;2.58;1.30;;;;;;;3.84;100.00;98096.13;4977682;28;20034;-72
2023/01/16 10:31:50;;;;;;;1.40;1.13;;;;;;;3.93;100.00;98088.91;4988552;28;20043;-72
2023/01/16 10:34:25;;;;;;;3.03;1.27;;;;;;;4.05;100.00;98087.56;4989352;28;20068;-72
2023/01/16 10:36:56;;;;;;;1.55;1.17;;;;;;;4.24;100.00;98075.63;4987529;28;20053;-73
2023/01/16 10:39:30;;;;;;;2.65;1.60;;;;;;;4.48;100.00;98073.75;4988969;28;20021;-73
2023/01/16 10:50:29;;;;;;;3.30;1.92;;;;;;;4.71;100.00;98053.03;4988378;28;20047;-73
2023/01/16 10:52:54;;;;;;;4.20;1.60;;;;;;;4.70;100.00;98048.00;4988074;28;20030;-73
2023/01/16 10:55:20;;;;;;;2.67;1.70;;;;;;;4.69;100.00;98042.03;4988810;28;20096;-72
2023/01/16 10:57:50;;;;;;;1.58;1.40;;;;;;;4.62;100.00;98038.06;4976661;28;20446;-72
2023/01/16 11:00:29;;;;;;;2.50;1.27;;;;;;;4.66;100.00;98036.19;4987512;28;20034;-72
2023/01/16 11:02:58;;;;;;;2.33;1.50;;;;;;;4.62;100.00;98022.69;4985916;28;20035;-72
2023/01/16 11:05:29;;;;;;;2.28;1.50;;;;;;;4.59;100.00;98012.53;4987596;28;20444;-72
2023/01/16 11:08:02;;;;;;;3.42;1.05;;;;;;;4.58;100.00;98013.44;4988810;28;20104;-72
2023/01/16 11:10:28;;;;;;;2.53;1.20;;;;;;;4.55;100.00;98007.63;4988596;28;20504;-72
2023/01/16 11:18:34;;;;;;;2.63;1.20;;;;;;;4.38;100.00;97990.41;4987711;28;20574;-72
2023/01/16 11:21:28;;;;;;;3.03;1.13;;;;;;;4.31;100.00;97981.31;4986739;28;20328;-73
2023/01/16 11:24:14;;;;;;;2.50;1.02;;;;;;;4.29;100.00;97971.16;4981534;28;20497;-73
2023/01/16 11:26:47;;;;;;;2.00;1.17;;;;;;;4.31;100.00;97960.81;4988159;28;20089;-72
2023/01/16 11:29:19;;;;;;;3.00;1.42;;;;;;;4.40;100.00;97960.41;4987125;28;20032;-72
2023/01/16 11:31:54;;;;;;;2.88;1.60;;;;;;;4.53;100.00;97955.56;4988160;28;20034;-72
2023/01/16 11:34:25;;;;;;;2.03;1.30;;;;;;;4.59;100.00;97952.72;4987624;28;20393;-73
2023/01/16 11:36:53;;;;;;;4.63;1.40;;;;;;;4.58;100.00;97943.34;4987440;28;20026;-72
2023/01/16 11:39:22;;;;;;;3.58;1.52;;;;;;;4.59;100.00;97937.31;4987842;28;20030;-72
2023/01/16 11:41:51;;;;;;;3.50;1.40;;;;;;;4.60;100.00;97934.69;4988035;28;20034;-72
2023/01/16 11:47:22;;;;;;;1.75;1.20;;;;;;;4.60;100.00;97926.16;4987937;28;20060;-72
2023/01/16 11:49:50;;;;;;;1.75;1.10;;;;;;;4.60;100.00;97918.47;4988402;28;20060;-72
2023/01/16 11:52:27;;;;;;;1.52;1.23;;;;;;;4.62;100.00;97916.66;4987727;28;20089;-72
2023/01/16 11:54:57;;;;;;;1.70;1.30;;;;;;;4.69;100.00;97910.34;4986763;28;20027;-72
2023/01/16 11:57:23;;;;;;;2.53;1.10;;;;;;;4.80;100.00;97907.25;4986590;28;20033;-72
2023/01/16 12:00:00;;;;;;;1.70;1.20;;;;;;;4.93;100.00;97893.78;4987645;28;21004;-72
2023/01/16 12:02:44;;;;;;;4.45;1.38;;;;;;;5.04;100.00;97895.84;5016519;22;20061;-96
2023/01/16 12:08:41;;;;;;;2.05;1.10;;;;;;;4.99;100.00;97887.50;4998939;28;20470;-72
2023/01/16 12:11:38;;;;;;;2.97;1.23;;;;;;;5.03;100.00;97876.19;5006476;28;20041;-71
2023/01/16 12:14:22;;;;;;;2.00;1.20;;;;;;;4.98;100.00;97867.91;5007315;28;20041;-72
2023/01/16 12:17:11;;;;;;;3.40;1.10;;;;;;;4.95;100.00;97875.72;5007284;28;20030;-72
2023/01/16 12:19:58;;;;;;;1.92;1.30;;;;;;;4.91;100.00;97862.25;5022359;28;20021;-72
2023/01/16 12:22:33;;;;;;;4.10;1.50;;;;;;;4.94;100.00;97853.53;5005778;28;20032;-72
2023/01/16 12:25:17;;;;;;;3.13;1.40;;;;;;;4.99;100.00;97849.84;5006089;28;20038;-72
2023/01/16 12:27:46;;;;;;;3.33;2.10;;;;;;;5.02;100.00;97851.44;5007187;28;20033;-72
2023/01/16 12:30:31;;;;;;;6.57;1.60;;;;;;;4.98;100.00;97843.03;5006747;28;20030;-72
2023/01/16 12:33:28;;;;;;;3.13;1.50;;;;;;;4.89;100.00;97829.84;5006543;28;20071;-72
2023/01/16 12:36:03;;;;;;;6.45;1.80;;;;;;;4.87;100.00;97835.03;4992829;28;20041;-72
2023/01/16 12:38:46;;;;;;;4.25;1.70;;;;;;;4.85;100.00;97834.28;5006531;28;20038;-72
2023/01/16 12:44:25;;;;;;;4.53;1.83;;;;;;;4.88;100.00;97825.63;5006629;28;20061;-73
2023/01/16 12:47:21;;;;;;;5.45;1.85;;;;;;;4.88;100.00;97810.22;5006797;28;20045;-72
2023/01/16 12:49:59;;;;;;;3.60;1.70;;;;;;;4.89;100.00;97810.16;4981018;28;20415;-73